Hyundai Shanghai — 5BZM3 — position and weather

sailwx.info

Track history (hours):
 
Tides and Currents Weather Stations Pressure Air Temp Water Temp Dewpoint Dewpoint Depression Visibility Wind Speed Wind Dir Waves Ship Positions

Hyundai Shanghai

Last reported at 2017-Nov-14 01:00 UTC. Time now 2017-Nov-23 01:23 UTC.
Position N 48°12' E 162°54'.
Warning: this ship's position is 9 days out of date.

Length 304 m; draft 13.4 m.

Type: Ship (hazmat cat A). MMSI: 212353000.

Wind from 300 at 29 knots

Barometer 1010.0 mb
Air temperature 5.0 ° C
Visibility: greater than 5.4 NM
Water temperature 5.4 ° C

Date/timePositionNaut miles runAvg speedWind from/ knotsBaromVisibWave heightAir tempDewpointWater temp
2017-Nov-14 01:00N 48°12' E 162°54'48519.4 300 / 291010.0 5.4 5.0 5.4
2017-Nov-13 00:00N 50°06' E 174°54'49119.6 160 / 161005.0 0.3 10.0 6.1
2017-Nov-11 23:00N 50°36' W 172°18'98920.6 160 / 221034.0 5.4 9.0 6.3
2017-Nov-09 23:00N 47°30' W 147°36'   360 / 241022.0 5.4 9.0 9.5
2017-Nov-07 06:28N 38°10' W 124°02'920.8
2017-Nov-07 06:00N 38°10' W 123°50'1020.9
2017-Nov-07 05:30N 38°10' W 123°36'917.9
2017-Nov-07 05:01N 38°10' W 123°25'3 6.4
2017-Nov-07 04:30N 38°10' W 123°21'510.2
2017-Nov-07 04:00N 38°06' W 123°17'510.2
2017-Nov-07 03:30N 38°02' W 123°12'510.2
2017-Nov-07 03:00N 37°58' W 123°08'510.5
2017-Nov-07 02:30N 37°56' W 123°02'510.8
2017-Nov-07 02:00N 37°53' W 122°56'510.7
2017-Nov-07 01:30N 37°50' W 122°50'510.6
2017-Nov-07 01:00N 37°48' W 122°45'4 8.4
2017-Nov-07 00:30N 37°46' W 122°40'612.5
2017-Nov-07 00:01N 37°48' W 122°32'714.9
2017-Nov-06 23:31N 37°49' W 122°23'3 6.3
2017-Nov-06 22:59N 37°48' W 122°19'0 0.0
2017-Nov-06 22:29N 37°48' W 122°19'0 0.0
2017-Nov-06 21:59N 37°48' W 122°19'0 0.0
2017-Nov-06 21:29N 37°48' W 122°19'0 0.0
2017-Nov-06 20:59N 37°48' W 122°19'0 0.0
2017-Nov-06 20:29N 37°48' W 122°19'0 0.0
2017-Nov-06 02:31N 37°48' W 122°19'0 0.9
2017-Nov-06 02:01N 37°48' W 122°18'1 1.2
2017-Nov-06 01:31N 37°48' W 122°18'2 4.3
2017-Nov-06 01:00N 37°48' W 122°20'611.4
2017-Nov-06 00:30N 37°49' W 122°27'713.7
2017-Nov-06 00:00N 37°47' W 122°35'5 9.8
2017-Nov-05 23:30N 37°43' W 122°40'5 9.3
2017-Nov-05 23:00N 37°39' W 122°40'5 9.6
2017-Nov-05 22:31N 37°34' W 122°40'4 8.6
2017-Nov-05 22:01N 37°30' W 122°40'4 8.7
2017-Nov-05 21:30N 37°25' W 122°40'4 8.5
2017-Nov-05 21:01N 37°21' W 122°40'4 8.8
2017-Nov-05 20:31N 37°17' W 122°40'510.9
2017-Nov-05 20:00N 37°11' W 122°40'1121.2
2017-Nov-05 19:31N 37°01' W 122°35'1120.9
2017-Nov-05 19:00N 36°52' W 122°30'1020.7
2017-Nov-05 18:30N 36°42' W 122°25'1020.9
2017-Nov-05 18:00N 36°32' W 122°20'1121.5
2017-Nov-05 17:30N 36°22' W 122°15'1121.8
2017-Nov-05 17:00N 36°12' W 122°10'1121.5
2017-Nov-05 16:30N 36°02' W 122°05'1221.4
2017-Nov-05 15:56N 35°51' W 121°59'2921.3
2017-Nov-05 14:34N 35°26' W 121°40'121.4
2017-Nov-05 14:30N 35°25' W 121°39'1121.3
2017-Nov-05 14:00N 35°16' W 121°32'1121.2
2017-Nov-05 13:30N 35°08' W 121°25'1020.5
2017-Nov-05 13:00N 34°59' W 121°18'1121.1
2017-Nov-05 12:30N 34°50' W 121°11'1121.0
2017-Nov-05 12:00N 34°42' W 121°04'1020.7
2017-Nov-05 11:30N 34°33' W 120°57'1019.8
2017-Nov-05 11:00N 34°26' W 120°48'1120.7
2017-Nov-05 10:30N 34°23' W 120°36'1121.1
2017-Nov-05 10:00N 34°20' W 120°24'1121.4
2017-Nov-05 09:30N 34°17' W 120°11'1121.5
2017-Nov-05 08:59N 34°14' W 119°58'1121.1
2017-Nov-05 08:27N 34°11' W 119°45'1021.3
2017-Nov-05 08:00N 34°08' W 119°34'1121.6
2017-Nov-05 07:30N 34°06' W 119°22'1121.2
2017-Nov-05 06:58N 34°02' W 119°09'816.6
2017-Nov-05 06:28N 33°57' W 119°00'511.7
2017-Nov-05 06:00N 33°55' W 118°55'611.8
2017-Nov-05 05:31N 33°52' W 118°49'611.7
2017-Nov-05 05:01N 33°49' W 118°42'611.7
2017-Nov-05 04:31N 33°46' W 118°36'611.8
2017-Nov-05 04:00N 33°43' W 118°30'611.7
2017-Nov-05 03:31N 33°40' W 118°24'611.3
2017-Nov-05 03:00N 33°38' W 118°18'6 1.4
2017-Nov-04 22:54N 33°44' W 118°15'  
Track history (hours):
 
Tides and Currents Weather Stations Pressure Air Temp Water Temp Dewpoint Dewpoint Depression Visibility Wind Speed Wind Dir Waves Ship Positions

Hyundai Shanghai

Last reported at 2017-Nov-14 01:00 UTC. Time now 2017-Nov-23 01:23 UTC.
Position N 48°12' E 162°54'.
Warning: this ship's position is 9 days out of date.

Length 304 m; draft 13.4 m.

Type: Ship (hazmat cat A). MMSI: 212353000.

Wind from 300 at 29 knots

Barometer 1010.0 mb
Air temperature 5.0 ° C
Visibility: greater than 5.4 NM
Water temperature 5.4 ° C

Date/timePositionNaut miles runAvg speedWind from/ knotsBaromVisibWave heightAir tempDewpointWater temp
2017-Nov-14 01:00N 48°12' E 162°54'48519.4 300 / 291010.0 5.4 5.0 5.4
2017-Nov-13 00:00N 50°06' E 174°54'49119.6 160 / 161005.0 0.3 10.0 6.1
2017-Nov-11 23:00N 50°36' W 172°18'98920.6 160 / 221034.0 5.4 9.0 6.3
2017-Nov-09 23:00N 47°30' W 147°36'   360 / 241022.0 5.4 9.0 9.5
2017-Nov-07 06:28N 38°10' W 124°02'920.8
2017-Nov-07 06:00N 38°10' W 123°50'1020.9
2017-Nov-07 05:30N 38°10' W 123°36'917.9
2017-Nov-07 05:01N 38°10' W 123°25'3 6.4
2017-Nov-07 04:30N 38°10' W 123°21'510.2
2017-Nov-07 04:00N 38°06' W 123°17'510.2
2017-Nov-07 03:30N 38°02' W 123°12'510.2
2017-Nov-07 03:00N 37°58' W 123°08'510.5
2017-Nov-07 02:30N 37°56' W 123°02'510.8
2017-Nov-07 02:00N 37°53' W 122°56'510.7
2017-Nov-07 01:30N 37°50' W 122°50'510.6
2017-Nov-07 01:00N 37°48' W 122°45'4 8.4
2017-Nov-07 00:30N 37°46' W 122°40'612.5
2017-Nov-07 00:01N 37°48' W 122°32'714.9
2017-Nov-06 23:31N 37°49' W 122°23'3 6.3
2017-Nov-06 22:59N 37°48' W 122°19'0 0.0
2017-Nov-06 22:29N 37°48' W 122°19'0 0.0
2017-Nov-06 21:59N 37°48' W 122°19'0 0.0
2017-Nov-06 21:29N 37°48' W 122°19'0 0.0
2017-Nov-06 20:59N 37°48' W 122°19'0 0.0
2017-Nov-06 20:29N 37°48' W 122°19'0 0.0
2017-Nov-06 02:31N 37°48' W 122°19'0 0.9
2017-Nov-06 02:01N 37°48' W 122°18'1 1.2
2017-Nov-06 01:31N 37°48' W 122°18'2 4.3
2017-Nov-06 01:00N 37°48' W 122°20'611.4
2017-Nov-06 00:30N 37°49' W 122°27'713.7
2017-Nov-06 00:00N 37°47' W 122°35'5 9.8
2017-Nov-05 23:30N 37°43' W 122°40'5 9.3
2017-Nov-05 23:00N 37°39' W 122°40'5 9.6
2017-Nov-05 22:31N 37°34' W 122°40'4 8.6
2017-Nov-05 22:01N 37°30' W 122°40'4 8.7
2017-Nov-05 21:30N 37°25' W 122°40'4 8.5
2017-Nov-05 21:01N 37°21' W 122°40'4 8.8
2017-Nov-05 20:31N 37°17' W 122°40'510.9
2017-Nov-05 20:00N 37°11' W 122°40'1121.2
2017-Nov-05 19:31N 37°01' W 122°35'1120.9
2017-Nov-05 19:00N 36°52' W 122°30'1020.7
2017-Nov-05 18:30N 36°42' W 122°25'1020.9
2017-Nov-05 18:00N 36°32' W 122°20'1121.5
2017-Nov-05 17:30N 36°22' W 122°15'1121.8
2017-Nov-05 17:00N 36°12' W 122°10'1121.5
2017-Nov-05 16:30N 36°02' W 122°05'1221.4
2017-Nov-05 15:56N 35°51' W 121°59'2921.3
2017-Nov-05 14:34N 35°26' W 121°40'121.4
2017-Nov-05 14:30N 35°25' W 121°39'1121.3
2017-Nov-05 14:00N 35°16' W 121°32'1121.2
2017-Nov-05 13:30N 35°08' W 121°25'1020.5
2017-Nov-05 13:00N 34°59' W 121°18'1121.1
2017-Nov-05 12:30N 34°50' W 121°11'1121.0
2017-Nov-05 12:00N 34°42' W 121°04'1020.7
2017-Nov-05 11:30N 34°33' W 120°57'1019.8
2017-Nov-05 11:00N 34°26' W 120°48'1120.7
2017-Nov-05 10:30N 34°23' W 120°36'1121.1
2017-Nov-05 10:00N 34°20' W 120°24'1121.4
2017-Nov-05 09:30N 34°17' W 120°11'1121.5
2017-Nov-05 08:59N 34°14' W 119°58'1121.1
2017-Nov-05 08:27N 34°11' W 119°45'1021.3
2017-Nov-05 08:00N 34°08' W 119°34'1121.6
2017-Nov-05 07:30N 34°06' W 119°22'1121.2
2017-Nov-05 06:58N 34°02' W 119°09'816.6
2017-Nov-05 06:28N 33°57' W 119°00'511.7
2017-Nov-05 06:00N 33°55' W 118°55'611.8
2017-Nov-05 05:31N 33°52' W 118°49'611.7
2017-Nov-05 05:01N 33°49' W 118°42'611.7
2017-Nov-05 04:31N 33°46' W 118°36'611.8
2017-Nov-05 04:00N 33°43' W 118°30'611.7
2017-Nov-05 03:31N 33°40' W 118°24'611.3
2017-Nov-05 03:00N 33°38' W 118°18'6 1.4
2017-Nov-04 22:54N 33°44' W 118°15'  

Dump ship's entire track history